Terminal Aerodrome Forecast
Issued by NWS

Home | Current Version | Previous Version | Text Only | Print | Product List | Glossary On
Versions: 1 2 3 4 5 6 7 8 9 10 11 12 13 14 15 16 17 18 19 20 21 22 23
014
FTUS46 KSGX 221120
TAFSAN
TAF
KSAN 221120Z 2212/2318 29009KT P6SM VCSH SCT025 BKN040
      TEMPO 2212/2216 5SM -SHRA BKN025
     FM221900 25011G17KT P6SM VCSH BKN040
     FM230200 29008KT P6SM VCSH SCT025 BKN035
     FM231000 VRB05KT P6SM SCT025 BKN035=

USA.gov is the U.S. government's official web portal to all federal, state and local government web resources and services.